KELM/ELM METAR and TAF weather

Enter ICAO airport designator
Station Type Date Time Source
KELM METAR 2018/07/19 06:53 UTC NOAA

KELM 190653Z AUTO 28003KT 10SM CLR 09/09 A3009 RMK AO2 SLP189 T00940089


Station Type Date Time Source
KELM Decoded METAR 2018/07/19 06:53 UTC NOAA

ELMIRA COUNTY AIRPORT, NY, United States (KELM) 42-10N 76-54W 302M
Jul 19, 2018 - 02:53 AM EDT / 2018.07.19 0653 UTC
Wind: from the W (280 degrees) at 3 MPH (3 KT):0
Visibility: 10 mile(s):0
Sky conditions: clear
Temperature: 48.9 F (9.4 C)
Dew Point: 48.0 F (8.9 C)
Relative Humidity: 96%
Pressure (altimeter): 30.09 in. Hg (1018 hPa)
ob: KELM 190653Z AUTO 28003KT 10SM CLR 09/09 A3009 RMK AO2 SLP189 T00940089
cycle: 7

Station Type Date Time Source
KELM TAF 2018/07/19 06:24 UTC NOAA

TAF KELM 190521Z 1906/2006 00000KT P6SM SKC
FM190800 00000KT 4SM BR SCT002
TEMPO 1910/1912 1/2SM FG VV002
FM191300 21004KT P6SM SKC
FM200200 VRB02KT P6SM SKC


Example: see airport list